Aviation Digital Data Service (ADDS)

Output produced by METARs form (0838 UTC 21 October 2017)
found at http://www.aviationweather.gov/adds/metars/
 
METAR text: KPIT 210751Z 00000KT 10SM CLR 08/05 A3025 RMK AO2 SLP248 T00830050
Conditions at: KPIT (PITTSBURGH , PA, US) observed 0751 UTC 21 October 2017
Temperature: 8.3°C (47°F)
Dewpoint: 5.0°C (41°F) [RH = 80%]
Pressure (altimeter): 30.25 inches Hg (1024.5 mb)
[Sea-level pressure: 1024.8 mb]
Winds: calm
Visibility: 10 or more miles (16+ km)
Ceiling: at least 12,000 feet AGL
Clouds: sky clear below 12,000 feet AGL
Weather: no significant weather observed at this time

METAR text: K2G4 210825Z AUTO 15010KT 10SM CLR 12/00 A3028 RMK AO1
Conditions at: K2G4 (GARRETT CO , MD, US) observed 0825 UTC 21 October 2017
Temperature: 12.0°C (54°F)
Dewpoint: 0.0°C (32°F) [RH = 44%]
Pressure (altimeter): 30.28 inches Hg (1025.5 mb)
Winds: from the SSE (150 degrees) at 12 MPH (10 knots; 5.2 m/s)
Visibility: 10 or more miles (16+ km)
Ceiling: at least 12,000 feet AGL
Clouds: sky clear below 12,000 feet AGL
Weather: automated observation with no human augmentation;
there may or may not be significant weather present at this time

METAR text: KAFJ 210756Z AUTO 00000KT 10SM CLR 06/04 A3028 RMK AO2 SLP253 T00560044
Conditions at: KAFJ (WASHINGTON , PA, US) observed 0756 UTC 21 October 2017
Temperature: 5.6°C (42°F)
Dewpoint: 4.4°C (40°F) [RH = 92%]
Pressure (altimeter): 30.28 inches Hg (1025.5 mb)
[Sea-level pressure: 1025.3 mb]
Winds: calm
Visibility: 10 or more miles (16+ km)
Ceiling: at least 12,000 feet AGL
Clouds: sky clear below 12,000 feet AGL
Weather: automated observation with no human augmentation;
there may or may not be significant weather present at this time

METAR text: KAGC 210753Z 15004KT 9SM CLR 10/04 A3025 RMK AO2 SLP245 T01000044
Conditions at: KAGC (PITTSBURGH/ALLEG, PA, US) observed 0753 UTC 21 October 2017
Temperature: 10.0°C (50°F)
Dewpoint: 4.4°C (40°F) [RH = 68%]
Pressure (altimeter): 30.25 inches Hg (1024.5 mb)
[Sea-level pressure: 1024.5 mb]
Winds: from the SSE (150 degrees) at 5 MPH (4 knots; 2.1 m/s)
Visibility: 9 miles (14 km)
Ceiling: at least 12,000 feet AGL
Clouds: sky clear below 12,000 feet AGL
Weather: no significant weather observed at this time

METAR text: KBTP 210756Z AUTO 05003KT 10SM CLR 05/03 A3026 RMK AO2 SLP253 T00500033
Conditions at: KBTP (BUTLER CO. , PA, US) observed 0756 UTC 21 October 2017
Temperature: 5.0°C (41°F)
Dewpoint: 3.3°C (38°F) [RH = 89%]
Pressure (altimeter): 30.26 inches Hg (1024.8 mb)
[Sea-level pressure: 1025.3 mb]
Winds: from the NE (50 degrees) at 3 MPH (3 knots; 1.6 m/s)
Visibility: 10 or more miles (16+ km)
Ceiling: at least 12,000 feet AGL
Clouds: sky clear below 12,000 feet AGL
Weather: automated observation with no human augmentation;
there may or may not be significant weather present at this time

METAR text: KDUJ 210753Z AUTO A3027 RMK AO2 SLPNO PWINO FZRANO $
Conditions at: KDUJ (DU BOIS , PA, US) observed 0753 UTC 21 October 2017
Temperature: missing
Dewpoint: missing
Pressure (altimeter): 30.27 inches Hg (1025.1 mb)
Winds: missing
Visibility: missing
Ceiling: unknown
Clouds: missing
Weather:
SOME DATA ABOVE MAY BE INACCURATE!!!
"$" is an indication the sensor requires maintenance

METAR text: KFKL 210756Z AUTO 00000KT 10SM CLR 05/04 A3027 RMK AO2 SLP251 T00500039
Conditions at: KFKL (FRANKLIN , PA, US) observed 0756 UTC 21 October 2017
Temperature: 5.0°C (41°F)
Dewpoint: 3.9°C (39°F) [RH = 93%]
Pressure (altimeter): 30.27 inches Hg (1025.1 mb)
[Sea-level pressure: 1025.1 mb]
Winds: calm
Visibility: 10 or more miles (16+ km)
Ceiling: at least 12,000 feet AGL
Clouds: sky clear below 12,000 feet AGL
Weather: automated observation with no human augmentation;
there may or may not be significant weather present at this time

METAR text: KHLG 210753Z AUTO 00000KT 10SM CLR 12/03 A3024 RMK AO2 SLP241 T01170028
Conditions at: KHLG (WHEELING , WV, US) observed 0753 UTC 21 October 2017
Temperature: 11.7°C (53°F)
Dewpoint: 2.8°C (37°F) [RH = 54%]
Pressure (altimeter): 30.24 inches Hg (1024.1 mb)
[Sea-level pressure: 1024.1 mb]
Winds: calm
Visibility: 10 or more miles (16+ km)
Ceiling: at least 12,000 feet AGL
Clouds: sky clear below 12,000 feet AGL
Weather: automated observation with no human augmentation;
there may or may not be significant weather present at this time

METAR text: KIDI 210835Z AUTO 00000KT 5SM BR FEW013 05/04 A3030 RMK A01
Conditions at: KIDI (INDIANA/STEWART , PA, US) observed 0835 UTC 21 October 2017
Temperature: 5.0°C (41°F)
Dewpoint: 4.0°C (39°F) [RH = 93%]
Pressure (altimeter): 30.30 inches Hg (1026.2 mb)
Winds: calm
Visibility: 5 miles (8 km)
Ceiling: at least 12,000 feet AGL
Clouds: few clouds at 1300 feet AGL
Weather: BR  (mist)

METAR text: KLBE 210835Z AUTO 00000KT 10SM CLR 05/05 A3028 RMK AO2
Conditions at: KLBE (LATROBE/WESTMORL, PA, US) observed 0835 UTC 21 October 2017
Temperature: 5.0°C (41°F)
Dewpoint: 5.0°C (41°F) [RH = 100%]
Pressure (altimeter): 30.28 inches Hg (1025.5 mb)
Winds: calm
Visibility: 10 or more miles (16+ km)
Ceiling: at least 12,000 feet AGL
Clouds: sky clear below 12,000 feet AGL
Weather: automated observation with no human augmentation;
there may or may not be significant weather present at this time

METAR text: KMGW 210753Z AUTO 00000KT 10SM CLR 08/05 A3027 RMK AO2 SLP248 T00830050
Conditions at: KMGW (MORGANTOWN , WV, US) observed 0753 UTC 21 October 2017
Temperature: 8.3°C (47°F)
Dewpoint: 5.0°C (41°F) [RH = 80%]
Pressure (altimeter): 30.27 inches Hg (1025.1 mb)
[Sea-level pressure: 1024.8 mb]
Winds: calm
Visibility: 10 or more miles (16+ km)
Ceiling: at least 12,000 feet AGL
Clouds: sky clear below 12,000 feet AGL
Weather: automated observation with no human augmentation;
there may or may not be significant weather present at this time

METAR text: KPHD 210753Z AUTO 00000KT 10SM CLR 07/06 A3025 RMK AO2 SLP242 T00670056 $
Conditions at: KPHD (NEW PHILADELPHIA, OH, US) observed 0753 UTC 21 October 2017
Temperature: 6.7°C (44°F)
Dewpoint: 5.6°C (42°F) [RH = 93%]
Pressure (altimeter): 30.25 inches Hg (1024.5 mb)
[Sea-level pressure: 1024.2 mb]
Winds: calm
Visibility: 10 or more miles (16+ km)
Ceiling: at least 12,000 feet AGL
Clouds: sky clear below 12,000 feet AGL
Weather:
SOME DATA ABOVE MAY BE INACCURATE!!!
"$" is an indication the sensor requires maintenance

METAR text: KUCP 210756Z AUTO 00000KT 10SM CLR 05/05 A3026 RMK AO2 SLP262 T00500050
Conditions at: KUCP (NEW CASTLE MUNI , PA, US) observed 0756 UTC 21 October 2017
Temperature: 5.0°C (41°F)
Dewpoint: 5.0°C (41°F) [RH = 100%]
Pressure (altimeter): 30.26 inches Hg (1024.8 mb)
[Sea-level pressure: 1026.2 mb]
Winds: calm
Visibility: 10 or more miles (16+ km)
Ceiling: at least 12,000 feet AGL
Clouds: sky clear below 12,000 feet AGL
Weather: automated observation with no human augmentation;
there may or may not be significant weather present at this time

METAR text: KZZV 210753Z AUTO 00000KT 10SM CLR 07/05 A3023 RMK AO2 SLP235 T00670050
Conditions at: KZZV (ZANESVILLE , OH, US) observed 0753 UTC 21 October 2017
Temperature: 6.7°C (44°F)
Dewpoint: 5.0°C (41°F) [RH = 89%]
Pressure (altimeter): 30.23 inches Hg (1023.8 mb)
[Sea-level pressure: 1023.5 mb]
Winds: calm
Visibility: 10 or more miles (16+ km)
Ceiling: at least 12,000 feet AGL
Clouds: sky clear below 12,000 feet AGL
Weather: automated observation with no human augmentation;
there may or may not be significant weather present at this time